createdAt,value
2023-02-03T00:00:15.404Z,44.10
2023-02-03T00:01:15.403Z,38.50
2023-02-03T00:02:15.453Z,44.10
2023-02-03T00:03:15.437Z,41.20
2023-02-03T00:04:15.364Z,46.90
2023-02-03T00:05:15.364Z,48.30
2023-02-03T00:06:15.345Z,43.70
2023-02-03T00:07:15.354Z,46.30
2023-02-03T00:08:15.346Z,47.40
2023-02-03T00:09:15.350Z,45.30
2023-02-03T00:10:15.308Z,49.00
2023-02-03T00:11:15.298Z,40.80
2023-02-03T00:12:15.301Z,40.40
2023-02-03T00:13:15.299Z,41.10
2023-02-03T00:14:15.295Z,43.50
2023-02-03T00:15:15.256Z,39.30
2023-02-03T00:16:15.311Z,41.80
2023-02-03T00:17:15.226Z,44.60
2023-02-03T00:18:15.251Z,45.50
2023-02-03T00:19:17.392Z,40.90
2023-02-03T00:20:15.214Z,47.10
2023-02-03T00:21:15.189Z,43.70
2023-02-03T00:22:15.179Z,38.00
2023-02-03T00:23:15.197Z,42.40
2023-02-03T00:24:15.171Z,40.70
2023-02-03T00:25:15.156Z,37.20
2023-02-03T00:26:15.145Z,42.30
2023-02-03T00:27:15.131Z,42.90
2023-02-03T00:28:15.193Z,38.70
2023-02-03T00:29:15.116Z,35.70
2023-02-03T00:30:15.119Z,39.50
2023-02-03T00:31:15.178Z,41.80
2023-02-03T00:32:15.154Z,36.30
2023-02-03T00:33:15.093Z,41.90
2023-02-03T00:34:15.073Z,43.90
2023-02-03T00:35:15.069Z,39.20
2023-02-03T00:36:15.044Z,39.30
2023-02-03T00:37:15.024Z,42.90
2023-02-03T00:38:15.035Z,41.50
2023-02-03T00:39:15.004Z,39.40
2023-02-03T00:40:15.004Z,39.70
2023-02-03T00:41:14.993Z,40.00
2023-02-03T00:42:14.985Z,38.00
2023-02-03T00:43:14.985Z,36.90
2023-02-03T00:44:14.975Z,38.70
2023-02-03T00:45:14.947Z,35.10
2023-02-03T00:46:15.043Z,36.40
2023-02-03T00:47:14.937Z,36.90
2023-02-03T00:48:14.948Z,34.50
2023-02-03T00:49:14.907Z,35.30
2023-02-03T00:50:14.910Z,37.00
2023-02-03T00:51:14.896Z,34.30
2023-02-03T00:52:14.877Z,33.90
2023-02-03T00:53:14.903Z,32.10
2023-02-03T00:54:14.866Z,34.10
2023-02-03T00:55:14.847Z,36.50
2023-02-03T00:56:14.839Z,26.80
2023-02-03T00:57:14.832Z,33.40
2023-02-03T00:58:14.818Z,30.30
2023-02-03T00:59:14.820Z,29.10
2023-02-03T01:00:14.798Z,30.30
2023-02-03T01:01:14.826Z,29.00
2023-02-03T01:02:14.857Z,28.70
2023-02-03T01:03:14.776Z,27.80
2023-02-03T01:04:14.780Z,27.20
2023-02-03T01:05:14.754Z,33.20
2023-02-03T01:06:14.745Z,26.80
2023-02-03T01:07:14.736Z,25.70
2023-02-03T01:08:14.724Z,32.30
2023-02-03T01:09:14.724Z,28.40
2023-02-03T01:10:14.706Z,29.50
2023-02-03T01:11:14.699Z,28.80
2023-02-03T01:12:14.675Z,26.00
2023-02-03T01:13:14.668Z,31.90
2023-02-03T01:14:14.686Z,27.70
2023-02-03T01:15:14.653Z,25.80
2023-02-03T01:16:14.688Z,30.00
2023-02-03T01:17:14.628Z,27.90
2023-02-03T01:18:14.622Z,27.00
2023-02-03T01:19:14.625Z,31.20
2023-02-03T01:20:14.600Z,28.40
2023-02-03T01:21:14.590Z,25.80
2023-02-03T01:22:14.578Z,24.30
2023-02-03T01:23:14.567Z,26.00
2023-02-03T01:24:14.585Z,26.70
2023-02-03T01:25:14.556Z,21.50
2023-02-03T01:26:14.543Z,26.70
2023-02-03T01:27:14.525Z,28.20
2023-02-03T01:28:14.627Z,27.00
2023-02-03T01:29:14.535Z,27.10
2023-02-03T01:30:14.504Z,25.40
2023-02-03T01:31:14.593Z,26.80
2023-02-03T01:32:14.483Z,25.80
2023-02-03T01:33:14.474Z,27.70
2023-02-03T01:34:14.470Z,24.70
2023-02-03T01:35:14.456Z,23.10
2023-02-03T01:36:14.441Z,23.50
2023-02-03T01:37:14.428Z,23.20
2023-02-03T01:38:14.455Z,22.50
2023-02-03T01:39:14.436Z,22.00
2023-02-03T01:40:14.398Z,22.60
2023-02-03T01:41:14.382Z,22.60
2023-02-03T01:42:14.387Z,25.10
2023-02-03T01:43:14.365Z,24.50
2023-02-03T01:44:14.380Z,27.40
2023-02-03T01:45:14.391Z,29.70
2023-02-03T01:46:14.354Z,28.10
2023-02-03T01:47:14.327Z,23.80
2023-02-03T01:48:14.329Z,21.50
2023-02-03T01:49:14.345Z,25.90
2023-02-03T01:50:14.298Z,23.60
2023-02-03T01:51:14.284Z,22.80
2023-02-03T01:52:14.283Z,26.30
2023-02-03T01:53:14.281Z,19.20
2023-02-03T01:54:14.268Z,20.80
2023-02-03T01:55:14.247Z,20.10
2023-02-03T01:56:14.242Z,20.80
2023-02-03T01:57:14.240Z,19.90
2023-02-03T01:58:14.232Z,18.20
2023-02-03T01:59:14.220Z,16.40
2023-02-03T02:00:14.199Z,18.30
2023-02-03T02:01:14.249Z,17.40
2023-02-03T02:02:14.239Z,20.50
2023-02-03T02:03:14.159Z,16.40
2023-02-03T02:04:14.170Z,20.50
2023-02-03T02:05:14.141Z,19.60
2023-02-03T02:06:14.150Z,17.00
2023-02-03T02:07:14.122Z,19.20
2023-02-03T02:08:14.112Z,17.40
2023-02-03T02:09:14.120Z,19.70
2023-02-03T02:10:14.092Z,17.30
2023-02-03T02:11:14.083Z,19.20
2023-02-03T02:12:14.082Z,22.00
2023-02-03T02:13:14.075Z,17.70
2023-02-03T02:14:14.073Z,16.00
2023-02-03T02:15:14.053Z,18.20
2023-02-03T02:16:14.089Z,17.80
2023-02-03T02:17:14.020Z,19.40
2023-02-03T02:18:14.027Z,19.70
2023-02-03T02:19:14.024Z,19.40
2023-02-03T02:20:13.995Z,23.20
2023-02-03T02:21:13.991Z,20.20
2023-02-03T02:22:13.973Z,17.40
2023-02-03T02:23:13.955Z,20.80
2023-02-03T02:24:13.976Z,17.60
2023-02-03T02:25:13.955Z,13.90
2023-02-03T02:26:13.937Z,19.10
2023-02-03T02:27:13.917Z,17.80
2023-02-03T02:28:13.952Z,20.30
2023-02-03T02:29:13.919Z,18.00
2023-02-03T02:30:13.887Z,21.10
2023-02-03T02:31:14.019Z,17.90
2023-02-03T02:32:13.869Z,19.20
2023-02-03T02:33:13.865Z,20.80
2023-02-03T02:34:13.890Z,18.40
2023-02-03T02:35:13.837Z,17.70
2023-02-03T02:36:13.831Z,22.60
2023-02-03T02:37:13.818Z,17.50
2023-02-03T02:38:13.818Z,22.40
2023-02-03T02:39:13.828Z,17.60
2023-02-03T02:40:13.792Z,18.30
2023-02-03T02:41:13.783Z,19.10
2023-02-03T02:42:13.774Z,21.70
2023-02-03T02:43:13.766Z,21.60
2023-02-03T02:44:13.762Z,19.70
2023-02-03T02:45:13.737Z,23.20
2023-02-03T02:46:13.723Z,23.00
2023-02-03T02:47:13.713Z,21.30
2023-02-03T02:48:13.719Z,23.60
2023-02-03T02:49:13.714Z,22.00
2023-02-03T02:50:13.685Z,21.30
2023-02-03T02:51:13.674Z,20.00
2023-02-03T02:52:13.675Z,21.60
2023-02-03T02:53:13.655Z,25.40
2023-02-03T02:54:13.667Z,17.40
2023-02-03T02:55:13.642Z,20.40
2023-02-03T02:56:15.544Z,21.10
2023-02-03T02:57:13.610Z,21.20
2023-02-03T02:58:13.606Z,20.70
2023-02-03T02:59:13.620Z,21.20
2023-02-03T03:00:13.586Z,19.60
2023-02-03T03:01:13.595Z,20.70
2023-02-03T03:02:13.569Z,20.50
2023-02-03T03:03:13.584Z,25.00
2023-02-03T03:04:13.559Z,25.50
2023-02-03T03:05:13.586Z,22.10
2023-02-03T03:06:13.523Z,18.70
2023-02-03T03:07:13.511Z,23.20
2023-02-03T03:08:13.523Z,18.30
2023-02-03T03:09:13.503Z,22.20
2023-02-03T03:10:13.492Z,23.00
2023-02-03T03:11:13.473Z,24.70
2023-02-03T03:12:13.473Z,21.10
2023-02-03T03:13:13.464Z,21.50
2023-02-03T03:14:13.456Z,21.60
2023-02-03T03:15:13.458Z,21.20
2023-02-03T03:16:13.474Z,19.40
2023-02-03T03:17:13.407Z,19.70
2023-02-03T03:18:13.425Z,19.40
2023-02-03T03:19:13.395Z,19.10
2023-02-03T03:20:13.403Z,17.90
2023-02-03T03:21:13.377Z,17.90
2023-02-03T03:22:13.404Z,18.30
2023-02-03T03:23:13.353Z,17.70
2023-02-03T03:24:13.335Z,17.90
2023-02-03T03:25:13.343Z,17.20
2023-02-03T03:26:13.363Z,15.90
2023-02-03T03:27:13.305Z,18.40
2023-02-03T03:28:13.324Z,20.70
2023-02-03T03:29:13.287Z,19.30
2023-02-03T03:30:13.304Z,19.60
2023-02-03T03:31:13.394Z,14.30
2023-02-03T03:32:13.267Z,18.60
2023-02-03T03:33:13.245Z,15.60
2023-02-03T03:34:13.258Z,18.00
2023-02-03T03:35:13.250Z,15.70
2023-02-03T03:36:13.218Z,15.30
2023-02-03T03:37:13.207Z,18.00
2023-02-03T03:38:13.209Z,16.20
2023-02-03T03:39:13.182Z,14.00
2023-02-03T03:40:13.199Z,14.50
2023-02-03T03:41:13.160Z,14.10
2023-02-03T03:42:13.160Z,15.20
2023-02-03T03:43:13.151Z,14.70
2023-02-03T03:44:13.145Z,16.50
2023-02-03T03:45:13.143Z,17.60
2023-02-03T03:46:13.123Z,18.00
2023-02-03T03:47:13.126Z,13.90
2023-02-03T03:48:13.106Z,16.50
2023-02-03T03:49:13.091Z,20.50
2023-02-03T03:50:13.097Z,18.40
2023-02-03T03:51:13.070Z,12.00
2023-02-03T03:52:13.059Z,16.00
2023-02-03T03:53:13.045Z,16.30
2023-02-03T03:54:13.034Z,18.90
2023-02-03T03:55:13.034Z,14.40
2023-02-03T03:56:13.022Z,14.30
2023-02-03T03:57:13.001Z,14.90
2023-02-03T03:58:12.995Z,12.80
2023-02-03T03:59:12.978Z,15.80
2023-02-03T04:00:12.986Z,14.10
2023-02-03T04:01:13.012Z,16.10
2023-02-03T04:02:13.080Z,16.00
2023-02-03T04:03:12.954Z,15.60
2023-02-03T04:04:12.928Z,15.30
2023-02-03T04:05:12.929Z,14.00
2023-02-03T04:06:12.915Z,15.40
2023-02-03T04:07:12.898Z,12.50
2023-02-03T04:08:12.892Z,15.50
2023-02-03T04:09:12.878Z,14.60
2023-02-03T04:10:12.890Z,14.20
2023-02-03T04:11:12.851Z,15.00
2023-02-03T04:12:12.851Z,20.60
2023-02-03T04:13:12.835Z,16.90
2023-02-03T04:14:12.838Z,13.60
2023-02-03T04:15:12.833Z,16.80
2023-02-03T04:16:12.844Z,16.10
2023-02-03T04:17:12.791Z,14.20
2023-02-03T04:18:12.792Z,15.80
2023-02-03T04:19:12.776Z,16.20
2023-02-03T04:20:12.796Z,18.90
2023-02-03T04:21:12.752Z,16.30
2023-02-03T04:22:12.753Z,17.60
2023-02-03T04:23:12.734Z,12.10
2023-02-03T04:24:12.724Z,12.60
2023-02-03T04:25:12.733Z,15.10
2023-02-03T04:26:12.694Z,16.50
2023-02-03T04:27:12.694Z,15.30
2023-02-03T04:28:12.699Z,13.40
2023-02-03T04:29:12.674Z,11.40
2023-02-03T04:30:12.676Z,12.30
2023-02-03T04:31:12.691Z,13.50
2023-02-03T04:32:12.651Z,14.80
2023-02-03T04:33:12.635Z,11.70
2023-02-03T04:34:12.621Z,17.10
2023-02-03T04:35:12.631Z,12.90
2023-02-03T04:36:12.598Z,16.70
2023-02-03T04:37:12.590Z,10.30
2023-02-03T04:38:12.574Z,15.30
2023-02-03T04:39:12.582Z,16.10
2023-02-03T04:40:12.575Z,15.50
2023-02-03T04:41:12.559Z,14.10
2023-02-03T04:42:12.547Z,12.00
2023-02-03T04:43:12.531Z,16.10
2023-02-03T04:44:12.511Z,18.00
2023-02-03T04:45:12.538Z,11.90
2023-02-03T04:46:12.549Z,14.00
2023-02-03T04:47:12.489Z,14.20
2023-02-03T04:48:12.475Z,13.60
2023-02-03T04:49:12.475Z,24.80
2023-02-03T04:50:12.468Z,27.70
2023-02-03T04:51:12.472Z,23.60
2023-02-03T04:52:12.432Z,18.70
2023-02-03T04:53:14.042Z,15.90
2023-02-03T04:54:12.411Z,13.60
2023-02-03T04:55:12.424Z,16.70
2023-02-03T04:56:12.394Z,14.20
2023-02-03T04:57:12.389Z,13.00
2023-02-03T04:58:12.367Z,16.50
2023-02-03T04:59:12.363Z,13.20
2023-02-03T05:00:12.376Z,14.50
2023-02-03T05:01:12.450Z,11.40
2023-02-03T05:02:12.328Z,14.60
2023-02-03T05:03:12.387Z,13.20
2023-02-03T05:04:12.313Z,13.50
2023-02-03T05:05:12.323Z,13.80
2023-02-03T05:06:12.305Z,14.60
2023-02-03T05:07:12.283Z,12.00
2023-02-03T05:08:12.268Z,14.30
2023-02-03T05:09:12.264Z,16.20
2023-02-03T05:10:12.268Z,16.40
2023-02-03T05:11:12.249Z,17.90
2023-02-03T05:12:12.229Z,13.20
2023-02-03T05:13:12.224Z,14.90
2023-02-03T05:14:12.220Z,14.80
2023-02-03T05:15:12.218Z,16.00
2023-02-03T05:16:12.199Z,17.60
2023-02-03T05:17:12.203Z,19.00
2023-02-03T05:18:12.161Z,19.90
2023-02-03T05:19:12.154Z,16.80
2023-02-03T05:20:12.160Z,14.10
2023-02-03T05:21:12.137Z,17.60
2023-02-03T05:22:12.141Z,16.30
2023-02-03T05:23:12.123Z,15.30
2023-02-03T05:24:12.113Z,20.10
2023-02-03T05:25:12.126Z,16.00
2023-02-03T05:26:12.108Z,13.50
2023-02-03T05:27:12.079Z,12.70
2023-02-03T05:28:12.144Z,16.70
2023-02-03T05:29:12.059Z,10.10
2023-02-03T05:30:12.069Z,13.90
2023-02-03T05:31:12.073Z,17.60
2023-02-03T05:32:12.080Z,12.80
2023-02-03T05:33:12.022Z,13.10
2023-02-03T05:34:12.009Z,14.80
2023-02-03T05:35:12.020Z,11.80
2023-02-03T05:36:11.984Z,15.00
2023-02-03T05:37:12.003Z,13.50
2023-02-03T05:38:11.975Z,13.40
2023-02-03T05:39:11.966Z,12.50
2023-02-03T05:40:11.960Z,11.60
2023-02-03T05:41:11.951Z,11.70
2023-02-03T05:42:11.918Z,14.10
2023-02-03T05:43:11.909Z,12.70
2023-02-03T05:44:11.913Z,9.70
2023-02-03T05:45:11.928Z,12.00
2023-02-03T05:46:12.011Z,7.10
2023-02-03T05:47:11.873Z,8.90
2023-02-03T05:48:11.858Z,13.00
2023-02-03T05:49:11.863Z,9.00
2023-02-03T05:50:11.851Z,12.50
2023-02-03T05:51:11.852Z,14.70
2023-02-03T05:52:11.825Z,9.80
2023-02-03T05:53:11.816Z,11.20
2023-02-03T05:54:11.794Z,13.60
2023-02-03T05:55:11.812Z,10.40
2023-02-03T05:56:11.826Z,13.60
2023-02-03T05:57:11.782Z,12.10
2023-02-03T05:58:11.757Z,10.70
2023-02-03T05:59:11.754Z,10.80
2023-02-03T06:00:11.760Z,11.60
2023-02-03T06:01:11.756Z,12.50
2023-02-03T06:02:11.717Z,14.00
2023-02-03T06:03:11.744Z,12.40
2023-02-03T06:04:11.902Z,10.70
2023-02-03T06:05:11.704Z,13.40
2023-02-03T06:06:11.677Z,11.50
2023-02-03T06:07:11.669Z,11.30
2023-02-03T06:08:11.666Z,15.00
2023-02-03T06:09:11.652Z,14.90
2023-02-03T06:10:11.648Z,13.20
2023-02-03T06:11:11.620Z,12.50
2023-02-03T06:12:11.614Z,10.50
2023-02-03T06:13:11.600Z,12.90
2023-02-03T06:14:11.604Z,12.30
2023-02-03T06:15:11.601Z,13.40
2023-02-03T06:16:11.655Z,15.50
2023-02-03T06:17:11.571Z,8.40
2023-02-03T06:18:11.542Z,13.30
2023-02-03T06:19:11.551Z,11.30
2023-02-03T06:20:11.548Z,12.00
2023-02-03T06:21:11.518Z,13.70
2023-02-03T06:22:11.504Z,11.40
2023-02-03T06:23:11.514Z,12.40
2023-02-03T06:24:11.498Z,12.90
2023-02-03T06:25:13.166Z,12.20
2023-02-03T06:26:11.462Z,16.10
2023-02-03T06:27:11.460Z,10.70
2023-02-03T06:28:11.500Z,14.80
2023-02-03T06:29:11.452Z,14.40
2023-02-03T06:30:11.454Z,14.40
2023-02-03T06:31:11.551Z,14.20
2023-02-03T06:32:11.416Z,15.70
2023-02-03T06:33:11.398Z,12.60
2023-02-03T06:34:11.378Z,13.70
2023-02-03T06:35:11.394Z,14.80
2023-02-03T06:36:11.373Z,14.80
2023-02-03T06:37:11.366Z,13.30
2023-02-03T06:38:11.346Z,15.50
2023-02-03T06:39:11.349Z,15.90
2023-02-03T06:40:11.344Z,14.80
2023-02-03T06:41:11.323Z,14.10
2023-02-03T06:42:11.298Z,12.90
2023-02-03T06:43:11.293Z,15.70
2023-02-03T06:44:11.278Z,13.20
2023-02-03T06:45:11.294Z,14.00
2023-02-03T06:46:11.284Z,9.00
2023-02-03T06:47:11.261Z,14.70
2023-02-03T06:48:11.389Z,13.00
2023-02-03T06:49:11.238Z,12.70
2023-02-03T06:50:11.234Z,12.90
2023-02-03T06:51:11.216Z,12.90
2023-02-03T06:52:11.195Z,14.20
2023-02-03T06:53:11.189Z,10.90
2023-02-03T06:54:11.186Z,12.70
2023-02-03T06:55:11.195Z,13.00
2023-02-03T06:56:11.114Z,10.70
2023-02-03T06:57:11.104Z,13.00
2023-02-03T06:58:11.085Z,14.60
2023-02-03T06:59:11.084Z,14.70
2023-02-03T07:00:13.609Z,12.70
2023-02-03T07:01:11.181Z,14.10
2023-02-03T07:02:11.095Z,15.10
2023-02-03T07:03:11.094Z,11.70
2023-02-03T07:04:11.092Z,11.80
2023-02-03T07:05:11.089Z,12.30
2023-02-03T07:06:11.046Z,14.00
2023-02-03T07:07:11.047Z,14.40
2023-02-03T07:08:11.027Z,16.30
2023-02-03T07:09:10.989Z,12.40
2023-02-03T07:10:10.981Z,13.20
2023-02-03T07:11:10.966Z,12.70
2023-02-03T07:12:10.988Z,12.30
2023-02-03T07:13:10.989Z,16.00
2023-02-03T07:14:10.909Z,15.60
2023-02-03T07:15:10.987Z,11.80
2023-02-03T07:16:10.955Z,10.70
2023-02-03T07:17:10.889Z,15.10
2023-02-03T07:18:11.828Z,12.50
2023-02-03T07:19:10.874Z,14.10
2023-02-03T07:20:10.873Z,9.30
2023-02-03T07:21:10.843Z,9.60
2023-02-03T07:22:10.845Z,11.00
2023-02-03T07:23:10.830Z,12.40
2023-02-03T07:24:10.823Z,16.20
2023-02-03T07:25:10.823Z,9.80
2023-02-03T07:26:10.797Z,11.80
2023-02-03T07:27:10.795Z,13.40
2023-02-03T07:28:10.858Z,12.60
2023-02-03T07:29:10.765Z,13.10
2023-02-03T07:30:10.778Z,11.00
2023-02-03T07:31:10.968Z,11.60
2023-02-03T07:32:10.777Z,9.40
2023-02-03T07:33:10.728Z,14.40
2023-02-03T07:34:10.737Z,10.50
2023-02-03T07:35:10.716Z,13.90
2023-02-03T07:36:10.697Z,11.90
2023-02-03T07:37:10.706Z,9.60
2023-02-03T07:38:10.660Z,12.10
2023-02-03T07:39:10.656Z,12.80
2023-02-03T07:40:10.667Z,9.70
2023-02-03T07:41:10.671Z,10.90
2023-02-03T07:42:10.646Z,11.60
2023-02-03T07:43:10.627Z,12.30
2023-02-03T07:44:10.604Z,11.70
2023-02-03T07:45:10.629Z,7.90
2023-02-03T07:46:10.634Z,10.90
2023-02-03T07:47:12.555Z,12.10
2023-02-03T07:48:10.569Z,13.90
2023-02-03T07:49:10.577Z,9.80
2023-02-03T07:50:10.580Z,13.40
2023-02-03T07:51:10.640Z,9.70
2023-02-03T07:52:10.526Z,11.40
2023-02-03T07:53:10.544Z,7.60
2023-02-03T07:54:10.523Z,7.40
2023-02-03T07:55:10.533Z,7.70
2023-02-03T07:56:10.484Z,11.00
2023-02-03T07:57:10.483Z,11.90
2023-02-03T07:58:10.469Z,8.30
2023-02-03T07:59:10.466Z,7.80
2023-02-03T08:00:10.457Z,8.40
2023-02-03T08:01:10.438Z,7.20
2023-02-03T08:02:10.457Z,10.00
2023-02-03T08:03:10.425Z,7.60
2023-02-03T08:04:10.401Z,7.30
2023-02-03T08:05:10.507Z,8.70
2023-02-03T08:06:10.396Z,8.10
2023-02-03T08:07:10.379Z,6.20
2023-02-03T08:08:10.439Z,6.80
2023-02-03T08:09:10.353Z,8.70
2023-02-03T08:10:10.365Z,9.40
2023-02-03T08:11:10.341Z,5.60
2023-02-03T08:12:10.321Z,5.90
2023-02-03T08:13:10.307Z,7.40
2023-02-03T08:14:10.298Z,6.10
2023-02-03T08:15:10.298Z,6.80
2023-02-03T08:16:10.330Z,6.00
2023-02-03T08:17:10.269Z,7.40
2023-02-03T08:18:10.259Z,5.40
2023-02-03T08:19:10.251Z,5.10
2023-02-03T08:20:10.245Z,7.30
2023-02-03T08:21:10.241Z,7.00
2023-02-03T08:22:10.235Z,8.00
2023-02-03T08:23:10.223Z,5.90
2023-02-03T08:24:10.206Z,5.90
2023-02-03T08:25:10.202Z,7.80
2023-02-03T08:26:10.193Z,5.60
2023-02-03T08:27:10.173Z,5.00
2023-02-03T08:28:10.225Z,4.70
2023-02-03T08:29:10.144Z,6.60
2023-02-03T08:30:10.144Z,4.90
2023-02-03T08:31:10.300Z,5.90
2023-02-03T08:32:10.160Z,4.60
2023-02-03T08:33:10.105Z,6.70
2023-02-03T08:34:10.115Z,2.90
2023-02-03T08:35:10.086Z,3.70
2023-02-03T08:36:10.088Z,5.50
2023-02-03T08:37:10.152Z,4.20
2023-02-03T08:38:10.046Z,5.10
2023-02-03T08:39:10.045Z,4.50
2023-02-03T08:40:10.048Z,3.70
2023-02-03T08:41:10.038Z,5.70
2023-02-03T08:42:10.026Z,3.70
2023-02-03T08:43:10.005Z,5.00
2023-02-03T08:44:09.996Z,5.00
2023-02-03T08:45:09.989Z,5.80
2023-02-03T08:46:10.730Z,4.70
2023-02-03T08:47:09.970Z,5.10
2023-02-03T08:48:09.951Z,4.20
2023-02-03T08:49:09.959Z,9.70
2023-02-03T08:50:09.937Z,5.60
2023-02-03T08:51:09.938Z,3.20
2023-02-03T08:52:09.910Z,3.90
2023-02-03T08:53:09.911Z,4.70
2023-02-03T08:54:09.891Z,4.00
2023-02-03T08:55:09.871Z,6.20
2023-02-03T08:56:09.892Z,4.30
2023-02-03T08:57:09.880Z,4.20
2023-02-03T08:58:09.865Z,5.80
2023-02-03T08:59:09.839Z,2.60
2023-02-03T09:00:09.824Z,2.80
2023-02-03T09:01:09.868Z,2.20
2023-02-03T09:02:09.812Z,2.60
2023-02-03T09:03:09.794Z,2.30
2023-02-03T09:04:09.797Z,2.90
2023-02-03T09:05:09.999Z,3.10
2023-02-03T09:06:09.793Z,3.70
2023-02-03T09:07:09.754Z,2.30
2023-02-03T09:08:09.756Z,3.00
2023-02-03T09:09:09.738Z,2.90
2023-02-03T09:10:09.742Z,4.40
2023-02-03T09:11:09.727Z,3.90
2023-02-03T09:12:09.706Z,3.80
2023-02-03T09:13:09.691Z,1.40
2023-02-03T09:14:09.687Z,2.40
2023-02-03T09:15:09.678Z,5.70
2023-02-03T09:16:09.774Z,3.30
2023-02-03T09:17:09.680Z,3.80
2023-02-03T09:18:09.644Z,5.80
2023-02-03T09:19:09.652Z,2.40
2023-02-03T09:20:09.645Z,2.60
2023-02-03T09:21:10.086Z,3.10
2023-02-03T09:22:09.603Z,3.20
2023-02-03T09:23:09.592Z,4.50
2023-02-03T09:24:09.592Z,3.40
2023-02-03T09:25:09.579Z,3.40
2023-02-03T09:26:09.583Z,2.50
2023-02-03T09:27:09.554Z,2.70
2023-02-03T09:28:09.636Z,3.50
2023-02-03T09:29:09.532Z,3.30
2023-02-03T09:30:09.521Z,2.90
2023-02-03T09:31:09.623Z,3.70
2023-02-03T09:32:09.567Z,4.00
2023-02-03T09:33:09.499Z,4.60
2023-02-03T09:34:09.507Z,3.90
2023-02-03T09:35:09.510Z,4.00
2023-02-03T09:36:09.475Z,3.00
2023-02-03T09:37:09.472Z,2.50
2023-02-03T09:38:09.437Z,4.20
2023-02-03T09:39:09.426Z,4.80
2023-02-03T09:40:09.419Z,2.60
2023-02-03T09:41:11.909Z,4.60
2023-02-03T09:42:09.400Z,3.20
2023-02-03T09:43:09.471Z,2.60
2023-02-03T09:44:09.379Z,3.10
2023-02-03T09:45:09.359Z,2.10
2023-02-03T09:46:09.436Z,3.10
2023-02-03T09:47:09.364Z,4.50
2023-02-03T09:48:09.391Z,6.50
2023-02-03T09:49:09.326Z,3.50
2023-02-03T09:50:09.309Z,5.00
2023-02-03T09:51:09.319Z,3.10
2023-02-03T09:52:09.311Z,5.20
2023-02-03T09:53:09.288Z,3.80
2023-02-03T09:54:09.271Z,3.60
2023-02-03T09:55:09.261Z,2.90
2023-02-03T09:56:09.273Z,2.80
2023-02-03T09:57:18.124Z,3.60
2023-02-03T09:58:09.231Z,3.20
2023-02-03T09:59:09.217Z,2.80
2023-02-03T10:00:09.216Z,2.00
2023-02-03T10:01:09.278Z,3.20
2023-02-03T10:02:09.250Z,3.40
2023-02-03T10:03:09.176Z,14.60
2023-02-03T10:04:09.167Z,3.10
2023-02-03T10:05:09.166Z,2.90
2023-02-03T10:06:09.191Z,3.80
2023-02-03T10:07:09.141Z,4.60
2023-02-03T10:08:09.131Z,3.40
2023-02-03T10:09:09.130Z,3.10
2023-02-03T10:10:09.115Z,2.40
2023-02-03T10:11:09.115Z,4.40
2023-02-03T10:12:09.090Z,2.30
2023-02-03T10:13:09.087Z,1.50
2023-02-03T10:14:09.067Z,3.40
2023-02-03T10:15:09.068Z,2.20
2023-02-03T10:16:09.069Z,1.90
2023-02-03T10:17:09.081Z,3.20
2023-02-03T10:18:09.031Z,4.60
2023-02-03T10:19:09.011Z,2.50
2023-02-03T10:20:09.014Z,2.90
2023-02-03T10:21:09.014Z,2.20
2023-02-03T10:22:08.992Z,2.50
2023-02-03T10:23:08.976Z,3.60
2023-02-03T10:24:08.971Z,2.40
2023-02-03T10:25:08.953Z,1.70
2023-02-03T10:26:08.966Z,5.50
2023-02-03T10:27:08.944Z,1.20
2023-02-03T10:28:09.001Z,2.90
2023-02-03T10:29:08.917Z,3.40
2023-02-03T10:30:08.905Z,2.40
2023-02-03T10:31:08.980Z,2.10
2023-02-03T10:32:09.002Z,4.90
2023-02-03T10:33:08.882Z,5.30
2023-02-03T10:34:08.875Z,2.30
2023-02-03T10:35:08.848Z,4.00
2023-02-03T10:36:08.858Z,2.00
2023-02-03T10:37:08.828Z,2.50
2023-02-03T10:38:08.837Z,3.10
2023-02-03T10:39:08.810Z,3.00
2023-02-03T10:40:08.807Z,4.20
2023-02-03T10:41:08.853Z,2.20
2023-02-03T10:42:08.800Z,4.00
2023-02-03T10:43:08.768Z,3.10
2023-02-03T10:44:08.775Z,2.80
2023-02-03T10:45:08.748Z,3.90
2023-02-03T10:46:08.865Z,3.60
2023-02-03T10:47:08.729Z,1.80
2023-02-03T10:48:08.721Z,2.60
2023-02-03T10:49:08.711Z,2.20
2023-02-03T10:50:08.704Z,4.60
2023-02-03T10:51:08.684Z,2.70
2023-02-03T10:52:08.733Z,2.80
2023-02-03T10:53:08.673Z,5.40
2023-02-03T10:54:08.663Z,2.30
2023-02-03T10:55:08.671Z,2.80
2023-02-03T10:56:08.650Z,2.90
2023-02-03T10:57:08.678Z,2.70
2023-02-03T10:58:08.618Z,3.30
2023-02-03T10:59:08.603Z,3.90
2023-02-03T11:00:08.604Z,4.20
2023-02-03T11:01:08.689Z,3.10
2023-02-03T11:02:08.606Z,3.00
2023-02-03T11:03:08.575Z,3.00
2023-02-03T11:04:08.595Z,3.30
2023-02-03T11:05:08.554Z,4.30
2023-02-03T11:06:08.536Z,3.50
2023-02-03T11:07:08.536Z,3.40
2023-02-03T11:08:08.524Z,3.00
2023-02-03T11:09:08.505Z,3.20
2023-02-03T11:10:08.502Z,2.00
2023-02-03T11:11:08.496Z,3.10
2023-02-03T11:12:08.505Z,3.90
2023-02-03T11:13:08.467Z,3.40
2023-02-03T11:14:08.459Z,3.80
2023-02-03T11:15:08.441Z,3.40
2023-02-03T11:16:08.564Z,3.50
2023-02-03T11:17:08.437Z,3.40
2023-02-03T11:18:08.410Z,2.80
2023-02-03T11:19:08.411Z,3.50
2023-02-03T11:20:08.404Z,2.70
2023-02-03T11:21:08.383Z,1.70
2023-02-03T11:22:08.397Z,4.50
2023-02-03T11:23:08.363Z,3.30
2023-02-03T11:24:08.384Z,2.40
2023-02-03T11:25:08.341Z,2.10
2023-02-03T11:26:08.334Z,3.30
2023-02-03T11:27:08.338Z,3.10
2023-02-03T11:28:08.395Z,3.70
2023-02-03T11:29:08.360Z,3.00
2023-02-03T11:30:08.294Z,3.00
2023-02-03T11:31:08.413Z,7.20
2023-02-03T11:32:08.326Z,4.70
2023-02-03T11:33:08.256Z,6.40
2023-02-03T11:34:08.254Z,3.30
2023-02-03T11:35:08.235Z,4.60
2023-02-03T11:36:08.230Z,5.80
2023-02-03T11:37:08.239Z,8.60
2023-02-03T11:38:08.217Z,6.10
2023-02-03T11:39:08.190Z,4.10
2023-02-03T11:40:08.185Z,5.10
2023-02-03T11:41:08.169Z,5.20
2023-02-03T11:42:08.189Z,5.20
2023-02-03T11:43:08.149Z,5.50
2023-02-03T11:44:08.151Z,6.90
2023-02-03T11:45:08.129Z,6.50
2023-02-03T11:46:08.203Z,6.70
2023-02-03T11:47:08.132Z,6.30
2023-02-03T11:48:08.123Z,4.90
2023-02-03T11:49:08.095Z,4.50
2023-02-03T11:50:08.091Z,6.30
2023-02-03T11:51:08.090Z,6.90
2023-02-03T11:52:08.083Z,6.60
2023-02-03T11:53:08.050Z,6.40
2023-02-03T11:54:08.068Z,6.10
2023-02-03T11:55:08.023Z,5.90
2023-02-03T11:56:08.026Z,6.50
2023-02-03T11:57:08.024Z,8.50
2023-02-03T11:58:08.011Z,9.60
2023-02-03T11:59:07.986Z,8.90
2023-02-03T12:00:07.984Z,4.90
2023-02-03T12:01:08.010Z,7.10
2023-02-03T12:02:07.987Z,8.30
2023-02-03T12:03:07.982Z,7.40
2023-02-03T12:04:07.984Z,4.80
2023-02-03T12:05:07.948Z,4.50
2023-02-03T12:06:07.925Z,5.30
2023-02-03T12:07:07.934Z,5.70
2023-02-03T12:08:07.903Z,7.60
2023-02-03T12:09:07.879Z,3.80
2023-02-03T12:10:07.887Z,6.20
2023-02-03T12:11:07.868Z,5.60
2023-02-03T12:12:07.879Z,4.70
2023-02-03T12:13:07.842Z,6.10
2023-02-03T12:14:07.846Z,4.90
2023-02-03T12:15:07.824Z,7.40
2023-02-03T12:16:07.830Z,5.40
2023-02-03T12:17:07.811Z,6.90
2023-02-03T12:18:17.577Z,4.70
2023-02-03T12:19:07.781Z,4.90
2023-02-03T12:20:07.775Z,3.70
2023-02-03T12:21:07.768Z,7.00
2023-02-03T12:22:07.788Z,5.40
2023-02-03T12:23:07.747Z,5.10
2023-02-03T12:24:07.738Z,4.40
2023-02-03T12:25:07.740Z,6.30
2023-02-03T12:26:07.718Z,5.80
2023-02-03T12:27:07.723Z,7.50
2023-02-03T12:28:07.758Z,5.40
2023-02-03T12:29:07.681Z,5.80
2023-02-03T12:30:07.679Z,6.60
2023-02-03T12:31:07.846Z,6.70
2023-02-03T12:32:07.710Z,4.10
2023-02-03T12:33:07.651Z,4.20
2023-02-03T12:34:07.643Z,5.50
2023-02-03T12:35:07.622Z,7.50
2023-02-03T12:36:07.613Z,5.10
2023-02-03T12:37:07.614Z,6.30
2023-02-03T12:38:07.606Z,7.50
2023-02-03T12:39:07.589Z,6.60
2023-02-03T12:40:07.569Z,8.30
2023-02-03T12:41:07.553Z,6.40
2023-02-03T12:42:07.569Z,4.70
2023-02-03T12:43:07.536Z,5.70
2023-02-03T12:44:07.532Z,5.70
2023-02-03T12:45:07.559Z,8.90
2023-02-03T12:46:07.538Z,5.70
2023-02-03T12:47:07.508Z,9.20
2023-02-03T12:48:07.496Z,8.30
2023-02-03T12:49:07.476Z,9.10
2023-02-03T12:50:07.475Z,9.00
2023-02-03T12:51:07.460Z,7.10
2023-02-03T12:52:07.469Z,8.00
2023-02-03T12:53:07.438Z,10.70
2023-02-03T12:54:07.435Z,12.70
2023-02-03T12:55:07.419Z,10.00
2023-02-03T12:56:07.421Z,11.80
2023-02-03T12:57:07.408Z,13.70
2023-02-03T12:58:07.417Z,11.20
2023-02-03T12:59:07.375Z,15.40
2023-02-03T13:00:07.368Z,11.30
2023-02-03T13:01:07.420Z,12.60
2023-02-03T13:02:07.391Z,12.90